Station: Smithton  

  Atmospheric Gas Attenuation - ITU Rec 676-11   ----------------- dB/100km -----------------
Date Time Temp RH % AH g/m3 Dew Point Wind Direction Speed kph Gust kph Barometer mB Rainfall Since 9am 24GHz 47GHz 76GHz 122GHz 134GHz 241GHz
09/05 23:40 10.3 90 8.62 8.7 15 17 1027.1 0 19.8 27.5 42.3 111.0 104.4 359.0
09/05 23:30 10.2 91 8.66 8.8 22 28 1026.9 0 19.9 27.6 42.5 111.5 105.1 361.3
09/05 23:20 9.2 89 7.95 7.5 19 20 1027.2 0 18.4 26.7 40.1 104.9 96.5 331.2
09/05 23:10 9.7 90 8.3 8.1 19 20 1027.3 0 19.1 27.2 41.3 108.2 100.8 346.1
09/05 23:00 9.5 88 8.01 7.6 11 17 1027.4 0 18.5 26.7 40.2 105.2 97.0 332.9
09/05 22:50 9.9 88 8.22 8 9 9 1027.4 0 18.9 27.0 40.9 107.0 99.4 341.3
09/05 22:40 9.9 88 8.22 8 13 13 1027.4 0 18.9 27.0 40.9 107.0 99.4 341.3
09/05 22:30 10.1 88 8.32 8.2 17 20 1027.4 0 19.2 27.1 41.2 107.9 100.5 345.3
09/05 22:20 10.4 87 8.39 8.3 17 17 1027.4 0 19.3 27.1 41.3 108.3 101.1 347.4
09/05 22:10 10.7 88 8.65 8.8 17 20 1027.3 0 19.8 27.4 42.3 110.8 104.3 358.6
09/05 22:00 10.7 87 8.55 8.6 19 24 1027.3 0 19.6 27.3 41.8 109.6 102.9 353.8
09/05 21:50 11 87 8.71 8.9 22 24 1027.3 0 19.9 27.5 42.3 111.0 104.8 360.2
09/05 21:40 11.3 87 8.88 9.2 19 20 1027.2 0 20.3 27.7 42.9 112.5 106.7 367.0
09/05 21:30 11.6 87 9.04 9.5 24 32 1027.2 0 20.6 27.8 43.4 113.9 108.5 373.4
09/05 21:20 11.5 88 9.09 9.6 26 30 1027.2 0 20.7 27.9 43.7 114.6 109.4 376.3
09/05 21:10 11.3 89 9.08 9.6 22 24 1027.1 0 20.7 28.0 43.7 114.8 109.5 376.8
09/05 21:00 11.5 89 9.19 9.8 24 30 1027.1 0 21.0 28.1 44.1 115.7 110.7 381.2
09/05 20:50 11.5 89 9.19 9.8 24 28 1027.1 0 21.0 28.1 44.1 115.7 110.7 381.2
09/05 20:40 11.4 90 9.24 9.8 22 28 1027 0 21.1 28.2 44.4 116.4 111.6 384.2
09/05 20:30 11.4 90 9.24 9.8 24 33 1026.8 0 21.1 28.2 44.4 116.4 111.6 384.1
09/05 20:20 11.3 91 9.28 9.9 24 28 1026.8 0 21.2 28.3 44.6 117.0 112.3 386.6
09/05 20:10 11.1 91 9.17 9.7 22 24 1026.7 0 20.9 28.2 44.2 116.0 111.0 382.1
09/05 20:00 11.3 91 9.28 9.9 22 28 1026.8 0 21.2 28.3 44.6 117.0 112.3 386.6
09/05 19:50 11 91 9.11 9.6 20 24 1026.7 0 20.8 28.1 44.0 115.5 110.3 379.6
09/05 19:40 11 91 9.11 9.6 19 20 1026.6 0 20.8 28.1 44.0 115.5 110.3 379.6
09/05 19:30 11.3 91 9.28 9.9 22 28 1026.5 0 21.2 28.3 44.6 117.0 112.3 386.5
09/05 19:20 11.3 92 9.39 10 20 24 1026.4 0 21.4 28.5 45.0 118.2 113.8 391.9
09/05 19:10 11.3 92 9.39 10 22 26 1026.4 0 21.4 28.5 45.0 118.2 113.8 391.9
09/05 19:00 11.2 91 9.23 9.8 15 22 1026.4 0 21.1 28.3 44.4 116.5 111.7 384.5
09/05 18:50 11.1 91 9.17 9.7 13 15 1026.3 0 20.9 28.2 44.2 116.0 111.0 382.0
09/05 18:40 11.3 91 9.28 9.9 17 20 1026.2 0 21.2 28.3 44.6 116.9 112.2 386.4
09/05 18:30 11.4 90 9.24 9.8 19 28 1026.1 0 21.1 28.2 44.3 116.3 111.5 383.9
09/05 18:20 11.4 90 9.24 9.8 17 20 1026 0 21.1 28.2 44.3 116.3 111.5 383.8
09/05 18:10 11.4 89 9.14 9.7 19 20 1025.9 0 20.9 28.0 43.9 115.2 110.1 378.9
09/05 18:00 11.4 88 9.03 9.5 17 22 1025.9 0 20.6 27.8 43.4 113.9 108.5 373.5
09/05 17:50 11.6 88 9.15 9.7 17 20 1025.8 0 20.9 28.0 43.8 115.0 109.9 378.4
09/05 17:40 11.7 87 9.1 9.6 17 20 1025.6 0 20.8 27.8 43.5 114.2 109.1 375.4
09/05 17:30 11.9 87 9.22 9.8 19 24 1025.4 0 21.0 28.0 43.9 115.3 110.4 380.2
09/05 17:20 12 86 9.17 9.7 22 26 1025.3 0 20.9 27.8 43.7 114.5 109.6 377.3
09/05 17:10 12.4 85 9.29 10 26 30 1025.2 0 21.1 27.9 43.9 115.3 110.7 381.1
09/05 17:00 12.6 84 9.29 10 22 32 1025.2 0 21.1 27.9 43.8 115.0 110.4 380.1
09/05 16:50 12.9 84 9.47 10.3 24 30 1025 0 21.5 28.1 44.4 116.6 112.4 387.4
09/05 16:40 13.1 84 9.59 10.5 20 22 1024.9 0 21.7 28.2 44.8 117.6 113.8 392.2
09/05 16:30 13.3 84 9.71 10.7 24 35 1024.9 0 22.0 28.3 45.2 118.7 115.2 397.0
09/05 16:20 13.5 84 9.83 10.9 26 30 1024.7 0 22.2 28.5 45.6 119.7 116.5 401.8
09/05 16:10 13.7 84 9.95 11 24 30 1024.7 0 22.5 28.6 46.0 120.7 117.9 406.6
09/05 16:00 13.8 84 10.01 11.1 24 33 1024.6 0 22.6 28.7 46.2 121.3 118.6 409.0
09/05 15:50 13.8 83 9.89 11 28 32 1024.5 0 22.3 28.5 45.6 119.9 116.9 403.1
09/05 15:40 14 82 9.89 11 30 33 1024.5 0 22.3 28.4 45.5 119.6 116.6 402.0
09/05 15:30 14.3 81 9.95 11.1 20 30 1024.5 0 22.4 28.4 45.6 119.8 117.0 403.4
09/05 15:20 14.9 80 10.2 11.5 15 19 1024.4 0 22.9 28.6 46.3 121.7 119.5 412.3
09/05 15:10 14.7 77 9.69 10.7 26 30 1024.4 0 21.9 27.8 44.3 116.3 112.8 388.8
09/05 15:00 15 75 9.62 10.6 28 37 1024.4 0 21.7 27.6 43.8 115.1 111.4 384.0
09/05 14:50 15.6 74 9.84 11 26 30 1024.3 0 22.1 27.8 44.4 116.6 113.5 391.4
09/05 14:40 15.4 73 9.59 10.6 32 35 1024.1 0 21.6 27.4 43.5 114.1 110.4 380.5
09/05 14:30 15.4 72 9.46 10.4 28 37 1024.1 0 21.3 27.2 42.9 112.7 108.6 374.4
09/05 14:20 15.4 72 9.46 10.4 30 32 1024.1 0 21.3 27.2 42.9 112.7 108.6 374.4
09/05 14:10 15.9 73 9.89 11.1 24 30 1024.1 0 22.2 27.8 44.4 116.7 113.7 392.2
09/05 14:00 15.5 71 9.38 10.3 30 35 1024.1 0 21.2 27.1 42.6 111.7 107.4 370.2
09/05 13:50 15.8 71 9.56 10.6 30 33 1024.2 0 21.5 27.3 43.1 113.2 109.4 377.2
09/05 13:40 15.8 71 9.56 10.6 26 33 1024.2 0 21.5 27.3 43.1 113.2 109.4 377.2
09/05 13:30 15.6 71 9.44 10.4 28 35 1024.3 0 21.3 27.1 42.8 112.2 108.1 372.6
09/05 13:20 16 72 9.81 11 24 28 1024.4 0 22.0 27.6 44.1 115.7 112.5 388.1
09/05 13:10 15.9 70 9.48 10.4 32 35 1024.4 0 21.3 27.1 42.8 112.2 108.2 373.1
09/05 13:00 16.2 73 10.07 11.4 26 32 1024.5 0 22.6 28.0 45.0 118.2 115.7 399.4
09/05 12:50 16.3 72 9.99 11.2 26 30 1024.5 0 22.4 27.8 44.6 117.2 114.5 395.1
09/05 12:40 16.5 73 10.25 11.6 28 30 1024.6 0 23.0 28.2 45.6 119.8 117.7 406.4
09/05 12:30 16.1 72 9.87 11.1 24 33 1024.8 0 22.2 27.7 44.3 116.2 113.2 390.5
09/05 12:20 16.1 73 10.01 11.3 26 32 1024.9 0 22.5 28.0 44.8 117.8 115.1 397.2
09/05 12:10 16 75 10.22 11.6 22 32 1025 0 22.9 28.3 45.8 120.3 118.1 407.7
09/05 12:00 15.9 75 10.16 11.5 28 35 1025.1 0 22.8 28.3 45.6 119.8 117.5 405.4
09/05 11:50 15.9 75 10.16 11.5 26 32 1025.2 0 22.8 28.3 45.6 119.8 117.5 405.4
09/05 11:40 15.8 76 10.23 11.6 26 30 1025.2 0 22.9 28.4 45.9 120.7 118.6 409.3
09/05 11:30 15.8 78 10.5 12 22 30 1025.3 0 23.5 28.9 47.1 123.7 122.3 422.3
09/05 11:20 15.6 79 10.51 12 22 26 1025.5 0 23.6 29.0 47.3 124.2 122.8 424.0
09/05 11:10 15.3 81 10.58 12.1 26 30 1025.6 0 23.7 29.2 47.7 125.5 124.3 429.1
09/05 11:00 15.2 83 10.77 12.3 28 33 1025.6 0 24.1 29.6 48.6 127.8 127.1 438.9
09/05 10:50 14.8 83 10.51 11.9 24 30 1025.6 0 23.6 29.2 47.7 125.5 124.1 428.4
09/05 10:40 14.6 85 10.64 12.1 20 24 1025.6 0 23.9 29.5 48.4 127.3 126.3 435.9
09/05 10:30 14.4 86 10.63 12.1 20 30 1025.5 0 23.9 29.6 48.5 127.5 126.4 436.5
09/05 10:20 14.1 88 10.68 12.1 20 22 1025.5 0 24.0 29.8 48.9 128.6 127.7 440.7
09/05 10:10 13.4 87 10.11 11.3 22 26 1025.5 0 22.8 29.0 46.9 123.1 120.7 416.3
09/05 10:00 13.4 88 10.23 11.5 20 28 1025.5 0 23.1 29.2 47.4 124.5 122.4 422.2
09/05 09:50 13.2 89 10.22 11.4 19 24 1025.4 0 23.1 29.3 47.5 124.7 122.6 422.8
09/05 09:40 13.2 90 10.33 11.6 15 17 1025.4 0 23.3 29.5 47.9 126.0 124.1 428.3
09/05 09:30 13 91 10.32 11.6 20 30 1025.4 0 23.3 29.5 48.0 126.2 124.3 428.9
09/05 09:20 12.7 91 10.13 11.3 17 20 1025.5 0 22.9 29.3 47.4 124.5 122.1 421.1
09/05 09:10 12.5 92 10.12 11.2 17 24 1025.5 0 22.9 29.3 47.5 124.7 122.3 421.7
09/05 09:00 12.3 92 9.99 11 20 30 1025.5 0 22.6 29.2 47.0 123.5 120.7 416.3
09/05 08:50 12.1 92 9.87 10.8 19 22 1025.4 0 22.4 29.0 46.6 122.4 119.3 411.3
09/05 08:40 12 92 9.81 10.7 20 26 1025.4 0 22.3 29.0 46.4 121.9 118.6 408.8
09/05 08:30 11.9 93 9.85 10.8 19 26 1025.3 0 22.4 29.1 46.6 122.5 119.3 411.3
09/05 08:20 11.8 93 9.79 10.7 17 24 1025.2 0 22.2 29.0 46.4 121.9 118.6 408.8
09/05 08:10 11.5 94 9.71 10.6 19 24 1025.1 0 22.1 28.9 46.3 121.5 117.9 406.4
09/05 08:00 11.4 94 9.65 10.5 22 30 1024.9 0 21.9 28.9 46.0 120.9 117.2 403.9
09/05 07:50 11.4 94 9.65 10.5 26 28 1024.8 0 21.9 28.9 46.0 120.9 117.2 403.8
09/05 07:40 11.2 94 9.53 10.3 24 28 1024.7 0 21.7 28.7 45.6 119.8 115.8 398.8
09/05 07:30 11.1 94 9.47 10.2 22 33 1024.7 0 21.6 28.6 45.4 119.3 115.1 396.4
09/05 07:20 11 94 9.41 10.1 24 30 1024.6 0 21.5 28.6 45.2 118.7 114.4 393.9
09/05 07:10 11 94 9.41 10.1 20 26 1024.5 0 21.5 28.6 45.2 118.7 114.4 393.8

Last Refresh: 09-May-2026 23:19:18

Bureau of Meteorology